Time;durP1;ratioP1;P1;durP2;ratioP2;P2;SDS_P1;SDS_P2;PMS_P1;PMS_P2;Temp;Humidity;BMP_temperature;BMP_pressure;BME280_temperature;BME280_humidity;BME280_pressure;Samples;Min_cycle;Max_cycle;Signal;HPM_P1;HPM_P2
2023/07/26 00:05:30;;;;;;;7.97;4.80;;;;;;;28.08;100.00;99553.97;30873113;28;20050;-76
2023/07/26 00:20:32;;;;;;;6.20;3.97;;;;;;;28.12;100.00;99559.91;30871090;28;20472;-75
2023/07/26 00:35:40;;;;;;;6.43;3.90;;;;;;;27.96;100.00;99546.47;30872765;28;20507;-77
2023/07/26 00:50:45;;;;;;;10.00;4.70;;;;;;;27.68;100.00;99527.75;30870241;28;20051;-77
2023/07/26 01:06:21;;;;;;;6.45;4.10;;;;;;;27.62;100.00;99472.19;30869386;28;20085;-77
2023/07/26 01:21:23;;;;;;;8.32;4.30;;;;;;;27.33;100.00;99421.31;30865181;28;20535;-78
2023/07/26 01:36:29;;;;;;;8.77;4.80;;;;;;;27.41;100.00;99397.00;30868023;28;20408;-75
2023/07/26 01:51:31;;;;;;;8.50;5.40;;;;;;;26.87;100.00;99347.91;30867975;28;20055;-76
2023/07/26 02:06:34;;;;;;;;;;;;;;;26.91;100.00;99311.34;30885636;28;20054;-76
2023/07/26 02:21:36;;;;;;;8.98;5.75;;;;;;;26.75;100.00;99289.00;30881272;28;19932;-76
2023/07/26 02:36:38;;;;;;;10.13;6.05;;;;;;;26.99;100.00;99267.59;30876220;28;20086;-75
2023/07/26 02:51:40;;;;;;;11.87;5.37;;;;;;;27.04;100.00;99258.31;30879613;28;20085;-74
2023/07/26 03:06:42;;;;;;;8.15;5.78;;;;;;;26.86;100.00;99323.38;30874754;28;20106;-75
2023/07/26 03:21:44;;;;;;;7.43;5.28;;;;;;;27.17;100.00;99355.66;30872851;28;20049;-75
2023/07/26 03:36:46;;;;;;;7.63;5.10;;;;;;;27.44;100.00;99376.38;30876679;28;20062;-76
2023/07/26 03:51:48;;;;;;;9.80;5.30;;;;;;;27.79;100.00;99385.97;30873849;28;20062;-74
2023/07/26 04:06:50;;;;;;;9.97;4.50;;;;;;;28.21;100.00;99413.59;30869811;28;20504;-74
2023/07/26 04:21:52;;;;;;;6.70;4.03;;;;;;;28.81;100.00;99445.59;30868100;28;20134;-75
2023/07/26 04:36:54;;;;;;;14.13;4.30;;;;;;;28.95;100.00;99451.72;30866293;28;20086;-74
2023/07/26 04:51:56;;;;;;;9.73;3.70;;;;;;;29.19;100.00;99476.25;30863565;28;20046;-74
2023/07/26 05:07:07;;;;;;;6.87;3.90;;;;;;;29.98;89.15;99514.03;30860079;28;20133;-74
2023/07/26 05:22:10;;;;;;;8.35;3.90;;;;;;;30.36;83.68;99499.06;30865389;28;20043;-77
2023/07/26 05:37:13;;;;;;;5.90;3.88;;;;;;;30.77;74.73;99525.66;30866583;28;20143;-79
2023/07/26 05:52:16;;;;;;;6.57;3.45;;;;;;;31.51;72.81;99517.09;30861294;28;20057;-77
2023/07/26 06:07:18;;;;;;;5.28;2.90;;;;;;;32.06;66.85;99499.03;30859267;28;20486;-75
2023/07/26 06:22:20;;;;;;;9.38;4.25;;;;;;;32.18;63.51;99480.31;30856971;28;20453;-76
2023/07/26 06:37:22;;;;;;;7.43;3.55;;;;;;;32.96;60.99;99503.84;30866250;28;20050;-77
2023/07/26 06:52:29;;;;;;;11.15;3.95;;;;;;;33.46;59.01;99498.41;30876547;28;20079;-74
2023/07/26 07:07:31;;;;;;;11.82;3.97;;;;;;;33.87;58.51;99492.91;30877576;28;20417;-75
2023/07/26 07:22:35;;;;;;;11.07;3.90;;;;;;;33.78;55.68;99521.81;30877049;28;20432;-74
2023/07/26 07:37:39;;;;;;;11.52;4.00;;;;;;;34.82;54.82;99515.69;30872055;28;20134;-76
2023/07/26 07:52:42;;;;;;;9.25;3.40;;;;;;;34.83;52.02;99523.56;30874652;28;20059;-75
2023/07/26 08:07:44;;;;;;;9.82;3.72;;;;;;;35.52;51.42;99502.72;30873539;28;20456;-78
2023/07/26 08:22:46;;;;;;;10.15;3.45;;;;;;;36.19;49.10;99512.59;30865493;28;20058;-76
2023/07/26 08:37:48;;;;;;;8.95;3.90;;;;;;;36.82;49.24;99491.00;30869581;28;20394;-79
2023/07/26 08:52:50;;;;;;;10.75;4.03;;;;;;;37.48;49.61;99496.22;30866649;28;20097;-78
2023/07/26 09:07:53;;;;;;;13.68;4.05;;;;;;;37.77;49.26;99463.84;30862430;28;20085;-77
2023/07/26 09:23:03;;;;;;;9.00;3.25;;;;;;;38.44;46.71;99464.59;30862155;28;20049;-77
2023/07/26 09:38:10;;;;;;;13.95;3.83;;;;;;;38.70;45.62;99473.75;30863001;28;20086;-79
2023/07/26 09:53:13;;;;;;;9.70;4.05;;;;;;;38.94;46.67;99462.88;30868665;28;20093;-77
2023/07/26 10:08:15;;;;;;;8.18;3.22;;;;;;;38.83;40.75;99442.50;30859555;28;20479;-77
2023/07/26 10:23:18;;;;;;;17.00;3.35;;;;;;;38.96;38.37;99426.84;30880590;28;20054;-78
2023/07/26 10:38:22;;;;;;;13.52;4.60;;;;;;;40.18;36.43;99399.16;30885081;28;20105;-77
2023/07/26 10:53:36;;;;;;;17.67;4.70;;;;;;;39.49;35.39;99403.84;30887261;28;20405;-76
2023/07/26 11:08:46;;;;;;;12.65;4.32;;;;;;;40.26;34.26;99363.94;30884788;28;20043;-78
2023/07/26 11:23:48;;;;;;;16.60;4.72;;;;;;;39.03;35.19;99369.03;30874000;28;20085;-77
2023/07/26 11:38:50;;;;;;;16.15;4.68;;;;;;;38.57;36.63;99353.28;30876979;28;20051;-77
2023/07/26 11:53:56;;;;;;;12.07;4.47;;;;;;;37.78;38.76;99391.69;30872638;28;20091;-78
2023/07/26 12:09:09;;;;;;;12.30;4.80;;;;;;;37.46;39.95;99348.94;30871976;28;20133;-80
2023/07/26 12:24:19;;;;;;;13.02;4.22;;;;;;;37.11;42.11;99345.53;30876599;28;20069;-80
2023/07/26 12:39:22;;;;;;;8.43;3.75;;;;;;;37.17;43.05;99337.38;30872722;28;20078;-78
2023/07/26 12:54:24;;;;;;;12.63;4.40;;;;;;;37.17;43.06;99337.38;30870680;28;20146;-78
2023/07/26 13:09:27;;;;;;;10.38;3.92;;;;;;;36.98;43.28;99338.47;30866827;28;20057;-77
2023/07/26 13:24:30;;;;;;;19.63;4.40;;;;;;;36.78;43.62;99348.66;30865243;28;20485;-77
2023/07/26 13:39:32;;;;;;;7.95;3.17;;;;;;;36.71;42.94;99333.41;30865343;28;20065;-76
2023/07/26 13:54:34;;;;;;;14.02;4.45;;;;;;;36.48;41.47;99328.56;30857283;28;20047;-75
2023/07/26 14:09:36;;;;;;;9.85;3.75;;;;;;;36.22;40.10;99312.88;30855965;28;20054;-76
2023/07/26 14:24:38;;;;;;;23.38;3.67;;;;;;;35.97;37.74;99310.72;30861771;28;20150;-77
2023/07/26 14:39:40;;;;;;;12.32;3.25;;;;;;;36.11;35.29;99314.38;30862057;28;20473;-77
2023/07/26 14:54:42;;;;;;;8.80;3.97;;;;;;;35.82;35.16;99283.00;30859449;28;20082;-75
2023/07/26 15:09:44;;;;;;;12.88;3.85;;;;;;;35.77;34.95;99262.25;30873198;28;20467;-77
2023/07/26 15:24:46;;;;;;;12.10;3.20;;;;;;;35.60;36.71;99245.66;30877176;28;20255;-76
2023/07/26 15:39:49;;;;;;;12.90;3.45;;;;;;;35.26;37.80;99247.09;30873170;28;20130;-77
2023/07/26 15:54:51;;;;;;;14.75;3.35;;;;;;;35.11;38.44;99225.75;30870776;28;20086;-76
2023/07/26 16:09:53;;;;;;;12.25;3.67;;;;;;;34.63;39.30;99243.16;30875937;28;20047;-77
2023/07/26 16:24:55;;;;;;;9.85;3.20;;;;;;;34.34;41.22;99254.66;30867558;28;20086;-77
2023/07/26 16:39:57;;;;;;;17.63;4.38;;;;;;;34.05;41.30;99245.66;30867000;28;20141;-77
2023/07/26 16:54:59;;;;;;;14.07;3.75;;;;;;;33.76;41.56;99237.38;30864427;28;20441;-76
2023/07/26 17:10:01;;;;;;;8.85;3.50;;;;;;;33.33;44.24;99233.72;30864881;28;20055;-76
2023/07/26 17:25:04;;;;;;;10.02;4.22;;;;;;;32.80;47.45;99213.91;30864941;28;20082;-75
2023/07/26 17:40:07;;;;;;;9.27;3.90;;;;;;;32.30;49.65;99213.03;30857173;28;20213;-78
2023/07/26 17:55:09;;;;;;;7.22;3.63;;;;;;;31.91;51.60;99229.06;30865010;28;20058;-78
2023/07/26 18:10:14;;;;;;;5.45;3.30;;;;;;;31.61;53.56;99266.78;30865838;28;20167;-79
2023/07/26 18:25:17;;;;;;;10.20;3.38;;;;;;;31.25;55.27;99273.84;30863788;28;20437;-77
2023/07/26 18:40:18;;;;;;;12.73;4.00;;;;;;;31.10;57.22;99288.06;30886784;28;20079;-76
2023/07/26 18:55:21;;;;;;;9.43;4.47;;;;;;;30.79;60.96;99296.84;30882932;28;20090;-76
2023/07/26 19:10:23;;;;;;;4.68;3.88;;;;;;;30.53;65.24;99305.88;30875831;28;20409;-80
2023/07/26 19:25:25;;;;;;;8.10;4.25;;;;;;;30.41;67.90;99282.50;30876437;28;20517;-77
2023/07/26 19:40:27;;;;;;;5.65;4.00;;;;;;;30.19;69.75;99296.16;30873801;28;20082;-76
2023/07/26 19:55:29;;;;;;;;;;;;;;;30.19;77.35;99279.38;30877985;28;20114;-78
2023/07/26 20:10:31;;;;;;;14.23;5.95;;;;;;;29.73;80.41;99278.25;30870813;28;19926;-79
2023/07/26 20:25:39;;;;;;;7.57;4.95;;;;;;;29.33;92.87;99259.47;30866366;28;20086;-76
2023/07/26 20:40:48;;;;;;;9.02;5.68;;;;;;;29.04;100.00;99222.06;30876125;28;20051;-82
2023/07/26 20:55:55;;;;;;;15.00;6.20;;;;;;;28.82;100.00;99196.44;30873507;28;20429;-78
2023/07/26 21:10:57;;;;;;;9.45;5.95;;;;;;;28.88;100.00;99204.63;30874277;28;20050;-81
2023/07/26 21:25:59;;;;;;;10.30;6.10;;;;;;;28.73;100.00;99197.03;30879000;28;20090;-82
2023/07/26 21:41:07;;;;;;;9.50;6.80;;;;;;;28.80;100.00;99195.53;30865125;28;20066;-78
2023/07/26 21:56:09;;;;;;;8.88;6.55;;;;;;;28.62;100.00;99172.31;30869313;28;20070;-78
2023/07/26 22:11:11;;;;;;;8.40;5.80;;;;;;;28.43;100.00;99166.47;30884334;28;20054;-79
2023/07/26 22:26:13;;;;;;;10.97;5.73;;;;;;;28.26;100.00;99135.66;30886979;28;20411;-79
2023/07/26 22:41:18;;;;;;;9.40;5.70;;;;;;;28.42;100.00;99132.22;30895121;28;20054;-79
2023/07/26 22:56:20;;;;;;;10.37;5.83;;;;;;;28.23;100.00;99103.31;30891530;28;20525;-80
2023/07/26 23:11:22;;;;;;;11.63;6.27;;;;;;;28.17;100.00;99095.09;30885403;28;20070;-79
2023/07/26 23:26:25;;;;;;;7.87;5.73;;;;;;;28.12;100.00;99116.31;30876887;28;20057;-78
2023/07/26 23:41:28;;;;;;;9.32;5.55;;;;;;;27.96;100.00;99109.31;30878873;28;20050;-79
2023/07/26 23:56:30;;;;;;;9.57;5.47;;;;;;;27.74;100.00;99038.38;30887044;28;20100;-77
